Time;durP1;ratioP1;P1;durP2;ratioP2;P2;SDS_P1;SDS_P2;PMS_P1;PMS_P2;Temp;Humidity;BMP_temperature;BMP_pressure;BME280_temperature;BME280_humidity;BME280_pressure;Samples;Min_cycle;Max_cycle;Signal;HPM_P1;HPM_P2
2022/12/28 00:01:16;;;;;;;3.53;1.73;;;;;;;-1.29;74.05;96678.27;1801085;80;21012;-71
2022/12/28 00:03:43;;;;;;;4.63;2.50;;;;;;;-1.35;74.49;96681.48;1801328;80;21462;-71
2022/12/28 00:06:10;;;;;;;6.03;3.83;;;;;;;-1.43;74.36;96689.73;1798191;80;21001;-71
2022/12/28 00:08:37;;;;;;;6.67;3.80;;;;;;;-1.54;75.45;96691.44;1800985;80;20995;-71
2022/12/28 00:11:09;;;;;;;3.93;1.53;;;;;;;-1.63;75.96;96692.72;1791817;80;21499;-72
2022/12/28 00:13:35;;;;;;;5.03;2.43;;;;;;;-1.64;75.89;96702.56;1787017;80;21515;-72
2022/12/28 00:16:10;;;;;;;4.47;2.47;;;;;;;-1.62;75.73;96698.35;1787180;80;20994;-72
2022/12/28 00:18:37;;;;;;;4.90;1.57;;;;;;;-1.59;75.63;96707.55;1785231;80;21002;-72
2022/12/28 00:21:05;;;;;;;2.53;1.20;;;;;;;-1.54;75.92;96708.64;1787113;80;21081;-72
2022/12/28 00:23:31;;;;;;;2.00;1.10;;;;;;;-1.58;75.45;96711.52;1787139;80;20993;-72
2022/12/28 00:26:09;;;;;;;3.80;1.60;;;;;;;-1.62;75.32;96710.00;1787136;80;21463;-72
2022/12/28 00:28:35;;;;;;;3.73;2.10;;;;;;;-1.65;75.72;96717.21;1785975;80;21125;-72
2022/12/28 00:31:02;;;;;;;4.40;2.43;;;;;;;-1.69;75.48;96714.41;1786868;80;21042;-71
2022/12/28 00:33:29;;;;;;;4.70;2.00;;;;;;;-1.67;75.86;96715.37;1786862;80;21045;-72
2022/12/28 00:35:59;;;;;;;4.10;2.03;;;;;;;-1.75;75.44;96713.72;1787226;80;20989;-72
2022/12/28 00:38:28;;;;;;;3.83;1.77;;;;;;;-1.76;75.76;96721.90;1787028;80;21089;-72
2022/12/28 00:40:54;;;;;;;4.30;1.90;;;;;;;-1.67;76.12;96728.31;1787022;80;21069;-72
2022/12/28 00:43:20;;;;;;;3.97;1.30;;;;;;;-1.65;75.55;96723.69;1787228;80;21028;-72
2022/12/28 00:45:48;;;;;;;3.97;1.30;;;;;;;-1.75;75.45;96719.78;1787091;80;21537;-72
2022/12/28 00:48:15;;;;;;;2.67;1.53;;;;;;;-1.82;75.52;96722.88;1787248;80;21009;-72
2022/12/28 00:50:43;;;;;;;2.80;1.20;;;;;;;-1.88;75.60;96725.20;1787059;80;21045;-72
2022/12/28 00:53:10;;;;;;;2.63;1.13;;;;;;;-1.88;75.89;96720.03;1787036;80;21006;-72
2022/12/28 00:55:38;;;;;;;5.57;1.60;;;;;;;-1.85;76.09;96719.28;1786931;80;20992;-72
2022/12/28 00:58:06;;;;;;;4.00;1.80;;;;;;;-1.82;76.18;96721.59;1787078;80;21547;-72
2022/12/28 01:00:35;;;;;;;3.13;1.63;;;;;;;-1.80;75.98;96723.85;1787051;80;20958;-72
2022/12/28 01:03:04;;;;;;;3.07;1.73;;;;;;;-1.87;76.31;96720.48;1787104;80;21008;-72
2022/12/28 01:05:31;;;;;;;2.10;1.27;;;;;;;-1.96;76.05;96723.55;1787110;80;21440;-71
2022/12/28 01:07:57;;;;;;;1.93;1.00;;;;;;;-1.96;76.42;96722.66;1786815;80;21068;-72
2022/12/28 01:10:24;;;;;;;3.93;1.50;;;;;;;-1.86;76.77;96722.28;1790549;80;21498;-71
2022/12/28 01:12:50;;;;;;;5.50;2.43;;;;;;;-1.80;76.59;96719.97;1800807;80;20997;-72
2022/12/28 01:15:17;;;;;;;5.13;2.60;;;;;;;-1.84;76.93;96728.42;1800935;80;21016;-72
2022/12/28 01:17:43;;;;;;;4.40;2.40;;;;;;;-1.83;76.99;96722.84;1800992;80;21048;-71
2022/12/28 01:20:10;;;;;;;2.73;1.23;;;;;;;-1.84;76.79;96720.66;1801186;80;20970;-71
2022/12/28 01:22:37;;;;;;;2.03;0.83;;;;;;;-1.79;77.05;96723.06;1797926;80;20989;-72
2022/12/28 01:25:04;;;;;;;3.23;1.60;;;;;;;-1.73;77.34;96725.04;1801150;80;21057;-71
2022/12/28 01:27:31;;;;;;;43.07;18.43;;;;;;;-1.71;77.12;96719.91;1801110;80;21004;-72
2022/12/28 01:29:57;;;;;;;7.03;2.37;;;;;;;-1.61;77.88;96716.55;1800969;80;20996;-71
2022/12/28 01:32:24;;;;;;;3.47;1.70;;;;;;;-1.58;77.04;96709.34;1801185;80;21439;-71
2022/12/28 01:34:51;;;;;;;3.70;1.47;;;;;;;-1.54;77.10;96716.02;1801130;80;21036;-71
2022/12/28 01:37:17;;;;;;;13.20;6.10;;;;;;;-1.48;76.85;96719.30;1800403;80;21075;-71
2022/12/28 01:39:44;;;;;;;19.77;8.17;;;;;;;-1.61;76.92;96706.62;1801131;80;20955;-72
2022/12/28 01:42:17;;;;;;;10.37;4.73;;;;;;;-1.74;76.88;96711.60;1801127;80;20965;-71
2022/12/28 01:44:49;;;;;;;1.93;1.07;;;;;;;-1.87;77.03;96708.85;1801118;80;20984;-71
2022/12/28 01:47:30;;;;;;;5.40;1.40;;;;;;;-1.85;77.37;96708.94;1800988;80;21013;-72
2022/12/28 01:50:07;;;;;;;4.33;2.00;;;;;;;-1.93;77.92;96708.58;1801350;80;21036;-71
2022/12/28 01:52:39;;;;;;;5.77;3.10;;;;;;;-1.95;78.09;96703.73;1800873;80;21044;-71
2022/12/28 01:55:22;;;;;;;3.67;2.20;;;;;;;-1.93;78.38;96714.16;1801118;80;21027;-72
2022/12/28 01:57:59;;;;;;;3.03;1.90;;;;;;;-1.99;78.20;96718.23;1800929;80;21052;-71
2022/12/28 02:00:25;;;;;;;1.50;0.97;;;;;;;-2.10;78.00;96715.52;1800977;80;21569;-71
2022/12/28 02:02:57;;;;;;;2.97;0.90;;;;;;;-2.04;78.33;96713.25;1801100;80;21044;-71
2022/12/28 02:05:29;;;;;;;2.97;1.73;;;;;;;-2.08;77.52;96711.31;1799752;80;21016;-71
2022/12/28 02:08:22;;;;;;;7.03;3.90;;;;;;;-2.08;78.16;96713.02;1801064;80;21059;-71
2022/12/28 02:10:51;;;;;;;13.33;5.87;;;;;;;-2.20;79.05;96712.90;1796521;80;21518;-71
2022/12/28 02:13:20;;;;;;;3.67;1.53;;;;;;;-2.23;78.41;96703.70;1749482;80;21475;-72
2022/12/28 02:15:48;;;;;;;6.33;2.50;;;;;;;-2.14;78.69;96706.25;1787021;80;21021;-71
2022/12/28 02:18:18;;;;;;;8.87;3.40;;;;;;;-2.05;79.20;96702.41;1786774;80;21061;-71
2022/12/28 02:20:59;;;;;;;5.50;2.30;;;;;;;-1.98;79.05;96696.72;1787050;80;21464;-72
2022/12/28 02:23:40;;;;;;;3.70;1.00;;;;;;;-1.97;78.80;96703.68;1785154;80;20989;-71
2022/12/28 02:26:27;;;;;;;8.80;3.80;;;;;;;-1.97;78.32;96698.51;1787102;80;21033;-71
2022/12/28 02:29:23;;;;;;;11.50;4.87;;;;;;;-2.09;78.84;96707.35;1787160;80;21020;-71
2022/12/28 02:32:06;;;;;;;11.07;4.97;;;;;;;-2.23;79.90;96707.59;1787013;80;20973;-71
2022/12/28 02:34:43;;;;;;;15.37;6.00;;;;;;;-2.36;79.93;96710.40;1786984;80;21507;-71
2022/12/28 02:37:24;;;;;;;3.00;1.50;;;;;;;-2.38;80.43;96706.84;1787148;80;21009;-71
2022/12/28 02:39:58;;;;;;;2.60;0.80;;;;;;;-2.31;79.99;96708.05;1786740;80;21016;-71
2022/12/28 02:42:26;;;;;;;1.10;0.70;;;;;;;-2.28;79.73;96710.36;1754611;80;21017;-71
2022/12/28 02:50:45;;;;;;;1.93;0.90;;;;;;;-2.29;79.04;96706.42;1787183;80;20990;-71
2022/12/28 02:53:43;;;;;;;0.50;0.50;;;;;;;-2.23;79.45;96710.58;1785424;80;21041;-71
2022/12/28 02:56:46;;;;;;;32.70;10.90;;;;;;;-2.22;79.09;96709.76;1787090;80;21041;-71
2022/12/28 02:59:45;;;;;;;13.53;4.97;;;;;;;-2.24;79.33;96706.24;1787121;80;20993;-71
2022/12/28 03:02:58;;;;;;;2.57;1.00;;;;;;;-2.16;79.71;96702.73;1786838;80;21002;-71
2022/12/28 03:08:54;;;;;;;5.67;1.27;;;;;;;-2.23;78.74;96707.59;1787009;80;21002;-70
2022/12/28 03:11:32;;;;;;;1.93;1.00;;;;;;;-2.40;78.38;96708.47;1787307;80;21056;-71
2022/12/28 03:14:08;;;;;;;1.50;0.87;;;;;;;-2.53;78.42;96708.68;1786465;80;20997;-70
2022/12/28 03:31:05;;;;;;;2.33;1.33;;;;;;;-2.65;78.98;96721.86;1787311;80;21479;-71
2022/12/28 03:33:39;;;;;;;7.33;1.70;;;;;;;-2.71;79.48;96720.28;1787252;80;21013;-71
2022/12/28 03:36:37;;;;;;;5.27;2.00;;;;;;;-2.71;79.64;96723.74;1786160;80;20990;-71
2022/12/28 03:39:29;;;;;;;1.67;0.80;;;;;;;-2.70;79.35;96715.58;1787208;80;20985;-71
2022/12/28 03:44:57;;;;;;;2.60;1.10;;;;;;;-2.69;79.75;96704.05;1787439;80;21484;-72
2022/12/28 03:47:26;;;;;;;2.10;1.00;;;;;;;-2.68;79.30;96718.72;1786180;80;20986;-71
2022/12/28 03:49:53;;;;;;;3.77;1.33;;;;;;;-2.69;79.12;96704.05;1787040;80;21510;-71
2022/12/28 03:52:20;;;;;;;1.53;0.90;;;;;;;-2.81;78.65;96706.42;1787251;80;21049;-72
2022/12/28 03:54:47;;;;;;;1.57;1.07;;;;;;;-2.92;79.04;96717.09;1787220;80;20993;-72
2022/12/28 03:57:15;;;;;;;2.30;1.10;;;;;;;-2.90;79.48;96714.19;1787136;80;21045;-72
2022/12/28 03:59:43;;;;;;;2.33;0.80;;;;;;;-3.02;79.24;96713.94;1787191;80;20965;-72
2022/12/28 04:02:10;;;;;;;1.97;1.10;;;;;;;-3.01;79.98;96710.16;1787202;80;20970;-72
2022/12/28 04:04:36;;;;;;;4.23;1.33;;;;;;;-2.87;80.22;96713.46;1787033;80;21056;-72
2022/12/28 04:07:03;;;;;;;3.53;1.57;;;;;;;-2.78;80.18;96709.16;1787222;80;20989;-72
2022/12/28 04:09:31;;;;;;;7.50;1.47;;;;;;;-2.83;79.61;96713.67;1749384;80;20989;-72
2022/12/28 04:11:58;;;;;;;5.20;3.33;;;;;;;-2.84;79.92;96709.33;1786883;80;21021;-72
2022/12/28 04:14:26;;;;;;;5.20;3.00;;;;;;;-2.79;79.93;96713.44;1784626;80;21020;-72
2022/12/28 04:16:53;;;;;;;2.63;1.10;;;;;;;-2.91;79.05;96712.81;1787382;80;21009;-72
2022/12/28 04:19:20;;;;;;;3.20;1.20;;;;;;;-2.91;79.71;96712.81;1787265;80;20982;-72
2022/12/28 04:21:47;;;;;;;2.80;1.53;;;;;;;-2.85;79.89;96708.86;1749439;80;21021;-72
2022/12/28 04:24:14;;;;;;;2.30;1.00;;;;;;;-2.81;79.65;96708.59;1787025;80;20974;-72
2022/12/28 04:26:40;;;;;;;1.63;1.10;;;;;;;-2.83;79.65;96708.50;1787203;80;20954;-72
2022/12/28 04:29:08;;;;;;;3.73;1.63;;;;;;;-2.78;79.56;96712.61;1787116;80;21024;-72
2022/12/28 04:31:36;;;;;;;6.53;3.73;;;;;;;-2.93;79.31;96719.17;1786644;80;21005;-72
2022/12/28 04:34:08;;;;;;;6.07;3.27;;;;;;;-3.10;78.86;96720.00;1785385;80;21049;-72
2022/12/28 04:36:41;;;;;;;2.93;1.30;;;;;;;-3.30;79.47;96726.33;1787292;80;21487;-72
2022/12/28 04:39:10;;;;;;;3.37;1.80;;;;;;;-3.24;80.06;96719.71;1786869;80;20978;-72
2022/12/28 04:41:36;;;;;;;3.20;1.50;;;;;;;-3.17;80.55;96718.81;1787308;80;21515;-71
2022/12/28 04:44:03;;;;;;;4.83;1.97;;;;;;;-3.01;80.79;96715.32;1787169;80;21037;-71
2022/12/28 04:46:29;;;;;;;4.93;2.70;;;;;;;-2.97;80.34;96715.06;1787095;80;20985;-71
2022/12/28 04:48:56;;;;;;;6.40;3.77;;;;;;;-3.03;79.57;96716.05;1749611;80;21387;-71
2022/12/28 04:51:25;;;;;;;8.37;4.77;;;;;;;-3.05;80.06;96727.20;1787283;80;21017;-71
2022/12/28 04:53:53;;;;;;;8.17;3.37;;;;;;;-3.03;79.89;96718.22;1786877;80;21447;-71
2022/12/28 04:56:22;;;;;;;5.03;1.67;;;;;;;-3.00;79.76;96718.78;1787088;80;21036;-71
2022/12/28 04:58:55;;;;;;;3.00;1.50;;;;;;;-3.02;79.79;96723.89;1787095;80;21531;-71
2022/12/28 05:01:22;;;;;;;1.92;1.00;;;;;;;-2.99;79.78;96718.00;1787330;80;20981;-71
2022/12/28 05:03:50;;;;;;;2.10;1.07;;;;;;;-2.97;79.82;96720.23;1787107;80;20994;-71
2022/12/28 05:06:20;;;;;;;2.80;1.00;;;;;;;-3.05;79.27;96724.62;1787144;80;21459;-71
2022/12/28 05:08:47;;;;;;;2.17;0.97;;;;;;;-3.16;79.11;96728.73;1786998;80;21037;-71
2022/12/28 05:11:21;;;;;;;3.13;1.10;;;;;;;-3.21;79.37;96729.78;1786976;80;20989;-71
2022/12/28 05:13:48;;;;;;;3.73;1.40;;;;;;;-3.19;80.03;96729.88;1786815;80;20962;-71
2022/12/28 05:16:21;;;;;;;2.90;1.33;;;;;;;-3.14;80.08;96738.33;1787043;80;21017;-71
2022/12/28 05:18:48;;;;;;;3.80;1.85;;;;;;;-3.05;80.20;96730.16;1787219;80;21497;-71
2022/12/28 05:21:18;;;;;;;7.97;3.93;;;;;;;-3.05;80.06;96729.78;1787099;80;21020;-71
2022/12/28 05:23:45;;;;;;;7.77;3.73;;;;;;;-3.11;79.80;96732.03;1787198;80;21001;-71
2022/12/28 05:26:19;;;;;;;2.73;1.60;;;;;;;-3.15;79.83;96730.49;1787192;80;21009;-71
2022/12/28 05:28:46;;;;;;;12.77;3.80;;;;;;;-3.21;79.81;96730.19;1754575;80;21492;-71
2022/12/28 05:31:20;;;;;;;10.00;3.80;;;;;;;-3.20;80.14;96725.49;1787052;80;21006;-71
2022/12/28 05:33:47;;;;;;;11.30;4.80;;;;;;;-3.27;79.72;96728.18;1787108;80;21523;-71
2022/12/28 05:36:17;;;;;;;7.97;3.73;;;;;;;-3.35;80.05;96725.20;1787056;80;20978;-71
2022/12/28 05:38:44;;;;;;;9.93;4.37;;;;;;;-3.39;79.85;96721.08;1786724;80;20981;-71
2022/12/28 05:41:19;;;;;;;3.10;2.00;;;;;;;-3.37;80.32;96729.80;1787131;80;20954;-71
2022/12/28 05:43:47;;;;;;;4.17;1.40;;;;;;;-3.41;80.08;96732.59;1787177;80;21555;-71
2022/12/28 05:46:18;;;;;;;1.97;1.30;;;;;;;-3.39;80.15;96725.83;1786818;80;21044;-71
2022/12/28 05:48:46;;;;;;;1.20;0.93;;;;;;;-3.45;80.03;96729.39;1787137;80;21455;-71
2022/12/28 05:51:16;;;;;;;4.23;1.73;;;;;;;-3.50;79.97;96727.84;1787109;80;21464;-71
2022/12/28 05:53:43;;;;;;;3.90;1.57;;;;;;;-3.52;80.28;96725.99;1787072;80;21013;-71
2022/12/28 05:56:14;;;;;;;3.00;1.40;;;;;;;-3.46;80.76;96726.72;1786874;80;20997;-71
2022/12/28 05:58:43;;;;;;;4.40;1.70;;;;;;;-3.43;80.65;96719.12;1787042;80;21065;-71
2022/12/28 06:01:14;;;;;;;4.63;2.00;;;;;;;-3.45;80.51;96718.16;1787037;80;20985;-71
2022/12/28 06:03:42;;;;;;;4.43;2.03;;;;;;;-3.45;80.83;96718.16;1786796;80;21519;-71
2022/12/28 06:06:13;;;;;;;3.03;1.33;;;;;;;-3.39;81.06;96727.12;1787041;80;20996;-71
2022/12/28 06:08:42;;;;;;;2.33;2.00;;;;;;;-3.40;80.65;96727.94;1787149;80;21013;-71
2022/12/28 06:11:12;;;;;;;6.03;2.73;;;;;;;-3.36;81.04;96727.27;1786737;80;21009;-71
2022/12/28 06:13:39;;;;;;;5.97;2.90;;;;;;;-3.38;80.72;96725.42;1787072;80;21483;-71
2022/12/28 06:16:12;;;;;;;8.80;2.40;;;;;;;-3.39;81.06;96728.82;1787157;80;21560;-71
2022/12/28 06:18:40;;;;;;;3.30;2.02;;;;;;;-3.44;81.24;96734.14;1786874;80;21013;-71
2022/12/28 06:21:13;;;;;;;4.70;1.30;;;;;;;-3.55;80.58;96725.42;1787132;80;21021;-71
2022/12/28 06:23:41;;;;;;;4.37;1.10;;;;;;;-3.46;81.27;96731.87;1787076;80;21013;-71
2022/12/28 06:26:08;;;;;;;2.07;1.40;;;;;;;-3.35;81.55;96729.45;1786946;80;20989;-71
2022/12/28 06:28:39;;;;;;;3.13;1.03;;;;;;;-3.24;81.56;96724.46;1779976;80;21005;-71
2022/12/28 06:31:13;;;;;;;2.30;1.10;;;;;;;-3.19;81.15;96724.30;1786947;80;21124;-71
2022/12/28 06:33:41;;;;;;;7.47;3.70;;;;;;;-3.23;80.54;96725.34;1787028;80;21001;-71
2022/12/28 06:36:18;;;;;;;8.63;3.87;;;;;;;-3.35;80.77;96721.70;1787125;80;20989;-71
2022/12/28 06:38:45;;;;;;;7.13;3.73;;;;;;;-3.47;80.25;96724.55;1787072;80;21021;-71
2022/12/28 06:41:14;;;;;;;5.23;2.80;;;;;;;-3.62;81.19;96722.44;1787134;80;20994;-71
2022/12/28 06:43:42;;;;;;;7.83;3.37;;;;;;;-3.60;81.48;96723.00;1787439;80;20978;-71
2022/12/28 06:46:10;;;;;;;5.23;2.53;;;;;;;-3.46;82.00;96720.27;1787129;80;21045;-71
2022/12/28 06:48:37;;;;;;;4.30;1.33;;;;;;;-3.26;82.36;96724.78;1787152;80;20997;-71
2022/12/28 06:51:08;;;;;;;2.80;1.53;;;;;;;-3.08;82.07;96719.69;1787211;80;20996;-71
2022/12/28 06:53:37;;;;;;;3.20;1.17;;;;;;;-3.08;81.45;96714.11;1787148;80;21013;-71
2022/12/28 06:56:11;;;;;;;14.30;8.47;;;;;;;-3.09;80.94;96715.34;1787229;80;20993;-71
2022/12/28 06:58:38;;;;;;;16.40;7.97;;;;;;;-3.21;80.47;96727.61;1787107;80;21872;-71
2022/12/28 07:01:24;;;;;;;15.37;8.17;;;;;;;-3.31;80.94;96724.94;1787231;80;21463;-71
2022/12/28 07:03:54;;;;;;;14.40;6.70;;;;;;;-3.33;81.01;96727.84;1787228;80;21005;-71
2022/12/28 07:06:25;;;;;;;3.33;2.23;;;;;;;-3.32;81.12;96720.19;1787264;80;21463;-71
2022/12/28 07:09:01;;;;;;;4.50;1.87;;;;;;;-3.24;81.16;96724.88;1787196;80;21013;-71
2022/12/28 07:11:29;;;;;;;5.30;4.10;;;;;;;-3.15;81.41;96731.78;1787134;80;21032;-71
2022/12/28 07:13:57;;;;;;;16.13;8.10;;;;;;;-3.08;81.63;96736.05;1787101;80;21531;-71
2022/12/28 07:16:27;;;;;;;15.13;8.50;;;;;;;-3.03;81.72;96731.13;1786901;80;21013;-71
2022/12/28 07:18:54;;;;;;;17.47;9.47;;;;;;;-2.89;82.04;96741.78;1787379;80;21010;-71
2022/12/28 07:21:31;;;;;;;21.33;11.23;;;;;;;-2.84;81.46;96744.19;1787027;80;20993;-71
2022/12/28 07:23:58;;;;;;;15.17;7.90;;;;;;;-2.87;82.39;96738.87;1787220;80;21020;-73
2022/12/28 07:26:28;;;;;;;9.13;3.57;;;;;;;-2.84;81.75;96739.03;1787052;80;21510;-72
2022/12/28 07:28:57;;;;;;;6.03;2.27;;;;;;;-2.86;81.50;96738.47;1787216;80;20965;-72
2022/12/28 07:31:28;;;;;;;4.53;1.70;;;;;;;-2.83;82.15;96739.91;1787263;80;21061;-72
2022/12/28 07:33:58;;;;;;;12.43;7.03;;;;;;;-2.78;81.97;96733.28;1787140;80;20998;-71
2022/12/28 07:36:26;;;;;;;4.53;2.97;;;;;;;-2.76;81.72;96734.25;1787269;80;21052;-71
2022/12/28 07:38:54;;;;;;;5.27;3.77;;;;;;;-2.80;82.34;96720.69;1787178;80;21024;-71
2022/12/28 07:41:25;;;;;;;4.17;2.27;;;;;;;-2.84;82.43;96720.95;1786954;80;21049;-71
2022/12/28 07:43:52;;;;;;;10.83;6.67;;;;;;;-2.84;82.33;96723.94;1787025;80;21463;-70
2022/12/28 07:46:25;;;;;;;8.30;5.50;;;;;;;-2.76;82.98;96721.33;1787246;80;21049;-70
2022/12/28 07:48:52;;;;;;;;;;;;;;;-2.56;83.54;96720.16;1789756;80;21025;-70
2022/12/28 07:51:23;;;;;;;20.70;9.83;;;;;;;-2.37;83.67;96722.82;1787220;80;20104;-70
2022/12/28 07:53:51;;;;;;;18.57;10.77;;;;;;;-2.13;83.90;96724.44;1787138;80;20986;-70
2022/12/28 07:56:19;;;;;;;22.07;11.33;;;;;;;-1.92;83.42;96723.27;1786984;80;21069;-71
2022/12/28 07:58:54;;;;;;;20.17;11.03;;;;;;;-1.73;82.71;96722.86;1787243;80;21005;-72
2022/12/28 08:01:24;;;;;;;18.80;10.50;;;;;;;-1.66;82.05;96711.95;1787122;80;21001;-72
2022/12/28 08:03:56;;;;;;;21.23;10.30;;;;;;;-1.57;81.49;96715.86;1787225;80;20985;-71
2022/12/28 08:06:24;;;;;;;19.57;10.83;;;;;;;-1.57;81.01;96717.16;1787128;80;21010;-71
2022/12/28 08:08:55;;;;;;;17.67;10.20;;;;;;;-1.48;81.43;96715.41;1787264;80;21048;-71
2022/12/28 08:11:25;;;;;;;18.60;11.03;;;;;;;-1.36;81.43;96715.97;1787070;80;20993;-70
2022/12/28 08:13:54;;;;;;;25.10;14.77;;;;;;;-1.23;81.15;96722.58;1798845;80;21069;-70
2022/12/28 08:16:23;;;;;;;25.97;13.90;;;;;;;-1.10;81.07;96718.42;1801134;80;21490;-70
2022/12/28 08:18:50;;;;;;;17.30;11.20;;;;;;;-0.98;80.56;96717.20;1801084;80;20981;-70
2022/12/28 08:21:21;;;;;;;18.33;10.37;;;;;;;-0.89;80.39;96721.47;1801172;80;21465;-70
2022/12/28 08:23:49;;;;;;;19.70;10.20;;;;;;;-0.91;80.00;96721.80;1801130;80;21013;-70
2022/12/28 08:26:26;;;;;;;21.07;11.97;;;;;;;-1.05;79.53;96728.98;1801066;80;21506;-70
2022/12/28 08:28:57;;;;;;;39.13;22.40;;;;;;;-1.16;79.39;96736.67;1801224;80;20989;-69
2022/12/28 08:31:32;;;;;;;49.10;30.83;;;;;;;-1.24;79.88;96728.98;1801001;80;21052;-70
2022/12/28 08:34:01;;;;;;;41.70;24.83;;;;;;;-1.15;80.57;96720.33;1801208;80;20996;-70
2022/12/28 08:36:28;;;;;;;25.63;16.00;;;;;;;-1.03;80.96;96718.29;1801091;80;21008;-69
2022/12/28 08:38:56;;;;;;;32.97;16.50;;;;;;;-0.97;80.64;96721.14;1801037;80;21012;-69
2022/12/28 08:41:25;;;;;;;25.23;14.83;;;;;;;-0.90;80.86;96718.41;1801005;80;20945;-70
2022/12/28 08:43:53;;;;;;;33.93;22.00;;;;;;;-0.75;81.22;96726.84;1800867;80;20984;-70
2022/12/28 08:46:29;;;;;;;27.17;17.07;;;;;;;-0.59;81.02;96719.30;1801146;80;21494;-70
2022/12/28 08:48:58;;;;;;;27.13;14.33;;;;;;;-0.46;80.87;96723.30;1801193;80;21423;-70
2022/12/28 08:51:32;;;;;;;27.43;16.43;;;;;;;-0.47;80.12;96724.13;1800977;80;21065;-70
2022/12/28 08:54:00;;;;;;;35.77;20.07;;;;;;;-0.45;80.31;96722.08;1801173;80;21039;-70
2022/12/28 08:56:30;;;;;;;28.60;15.90;;;;;;;-0.40;80.68;96727.46;1800833;80;21009;-70
2022/12/28 08:58:59;;;;;;;22.60;13.07;;;;;;;-0.33;80.32;96728.20;1801071;80;21518;-70
2022/12/28 09:01:35;;;;;;;29.97;16.57;;;;;;;-0.41;80.00;96725.67;1801081;80;21005;-70
2022/12/28 09:04:02;;;;;;;27.80;14.20;;;;;;;-0.38;80.68;96726.20;1801070;80;21459;-70
2022/12/28 09:06:36;;;;;;;26.60;15.37;;;;;;;-0.32;80.42;96733.84;1801006;80;21538;-70
2022/12/28 09:09:06;;;;;;;29.93;14.77;;;;;;;-0.18;80.94;96728.33;1801130;80;21478;-70
2022/12/28 09:11:35;;;;;;;23.37;13.37;;;;;;;-0.08;80.73;96730.05;1800934;80;21076;-70
2022/12/28 09:14:08;;;;;;;16.40;9.87;;;;;;;0.08;80.97;96722.50;1790261;80;21546;-70
2022/12/28 09:16:37;;;;;;;13.43;8.10;;;;;;;0.28;81.31;96719.39;1787133;80;21009;-70
2022/12/28 09:19:07;;;;;;;13.77;8.67;;;;;;;0.50;80.68;96705.50;1787025;80;21041;-70
2022/12/28 09:21:37;;;;;;;12.17;7.57;;;;;;;0.73;80.15;96708.08;1787080;80;21020;-70
2022/12/28 09:24:05;;;;;;;15.53;8.73;;;;;;;0.94;79.95;96698.91;1787516;80;21049;-70
2022/12/28 09:26:36;;;;;;;10.63;7.63;;;;;;;1.18;79.32;96694.98;1787064;80;21002;-70
2022/12/28 09:29:07;;;;;;;11.70;7.60;;;;;;;1.32;79.01;96689.86;1787119;80;21039;-70
2022/12/28 09:31:35;;;;;;;11.50;7.30;;;;;;;1.50;77.93;96694.81;1780099;80;21002;-70
2022/12/28 09:34:05;;;;;;;11.83;6.13;;;;;;;1.66;77.41;96690.99;1787112;80;20981;-70
2022/12/28 09:36:38;;;;;;;9.43;4.23;;;;;;;1.82;76.66;96679.40;1787166;80;21531;-70
2022/12/28 09:39:11;;;;;;;7.70;4.85;;;;;;;1.94;75.06;96674.56;1787451;80;20954;-70
2022/12/28 09:42:01;;;;;;;7.72;5.22;;;;;;;2.06;72.64;96676.68;1787046;80;21076;-70
2022/12/28 09:44:59;;;;;;;14.20;8.63;;;;;;;2.19;71.49;96676.64;1787169;80;20993;-70
2022/12/28 09:47:44;;;;;;;20.87;11.17;;;;;;;2.32;72.99;96664.48;1783621;80;21483;-70
2022/12/28 09:50:20;;;;;;;15.43;8.97;;;;;;;2.56;71.08;96658.69;1787076;80;20993;-70
2022/12/28 09:52:59;;;;;;;12.17;6.47;;;;;;;2.90;70.47;96650.55;1786856;80;21686;-70
2022/12/28 09:55:27;;;;;;;11.43;7.20;;;;;;;3.25;69.54;96654.13;1786962;80;21524;-70
2022/12/28 09:57:56;;;;;;;12.27;8.23;;;;;;;3.58;66.63;96648.41;1787040;80;21017;-70
2022/12/28 10:00:28;;;;;;;15.10;9.67;;;;;;;3.82;66.12;96645.11;1787045;80;21036;-69
2022/12/28 10:03:03;;;;;;;12.17;7.60;;;;;;;4.07;65.16;96643.97;1776936;80;21006;-67
2022/12/28 10:05:30;;;;;;;8.50;4.43;;;;;;;4.31;63.61;96634.52;1787268;80;20973;-67
2022/12/28 10:07:58;;;;;;;10.10;5.83;;;;;;;4.54;61.86;96632.41;1786843;80;21495;-67
2022/12/28 10:10:26;;;;;;;7.40;5.17;;;;;;;4.81;62.04;96630.32;1786883;80;21005;-68
2022/12/28 10:12:53;;;;;;;14.53;9.13;;;;;;;5.04;60.44;96625.55;1786946;80;21033;-67
2022/12/28 10:15:24;;;;;;;10.77;6.23;;;;;;;5.26;58.36;96622.48;1787122;80;21009;-67
2022/12/28 10:17:51;;;;;;;11.00;6.50;;;;;;;5.54;59.16;96622.55;1754650;80;21028;-68
2022/12/28 10:20:21;;;;;;;5.83;3.87;;;;;;;5.79;55.82;96620.34;1786792;80;21076;-68
2022/12/28 10:22:53;;;;;;;5.92;3.33;;;;;;;6.17;56.80;96610.93;1787063;80;20991;-68
2022/12/28 10:25:24;;;;;;;7.60;3.87;;;;;;;6.54;54.57;96606.22;1787067;80;20997;-68
2022/12/28 10:27:52;;;;;;;10.65;6.25;;;;;;;6.84;51.89;96600.04;1786996;80;21044;-68
2022/12/28 10:30:25;;;;;;;11.93;6.00;;;;;;;7.23;52.51;96599.16;1786849;80;21040;-68
2022/12/28 10:32:56;;;;;;;6.35;4.03;;;;;;;7.47;52.90;96593.28;1787101;80;20982;-68
2022/12/28 10:35:29;;;;;;;8.55;4.83;;;;;;;7.70;50.89;96581.67;1786851;80;21025;-69
2022/12/28 10:38:02;;;;;;;;;;;;;;;7.78;48.41;96585.23;1789737;80;21009;-68
2022/12/28 10:40:33;;;;;;;8.23;4.72;;;;;;;8.05;51.28;96584.56;1787766;80;20109;-67
2022/12/28 10:43:00;;;;;;;7.40;4.20;;;;;;;8.16;49.63;96591.20;1786539;80;21459;-68
2022/12/28 10:45:40;;;;;;;7.55;4.42;;;;;;;8.54;50.18;96594.53;1787145;80;21052;-68
2022/12/28 10:48:20;;;;;;;6.30;4.00;;;;;;;8.79;48.88;96600.80;1787374;80;21053;-68
2022/12/28 10:50:51;;;;;;;3.02;2.40;;;;;;;8.92;47.76;96598.69;1787016;80;21474;-67
2022/12/28 10:53:34;;;;;;;2.65;1.62;;;;;;;8.91;45.15;96596.03;1787188;80;21045;-67
2022/12/28 10:56:12;;;;;;;4.65;2.75;;;;;;;9.10;43.50;96588.21;1787029;80;21025;-67
2022/12/28 10:58:43;;;;;;;4.10;1.70;;;;;;;9.27;45.98;96586.95;1786863;80;21045;-67
2022/12/28 11:01:18;;;;;;;6.65;4.83;;;;;;;9.54;44.44;96582.59;1787064;80;21514;-67
2022/12/28 11:04:05;;;;;;;5.28;3.90;;;;;;;9.52;44.28;96585.66;1786885;80;21068;-67
2022/12/28 11:06:51;;;;;;;2.35;1.62;;;;;;;9.60;43.42;96586.56;1787040;80;21044;-67
2022/12/28 11:09:24;;;;;;;2.30;1.70;;;;;;;9.45;40.15;96588.73;1787098;80;20997;-67
2022/12/28 11:11:54;;;;;;;2.87;1.95;;;;;;;9.42;38.87;96582.12;1786911;80;20998;-67
2022/12/28 11:14:31;;;;;;;2.27;1.50;;;;;;;9.60;39.41;96572.08;1796132;80;21017;-67
2022/12/28 11:17:17;;;;;;;1.50;1.20;;;;;;;9.81;39.12;96572.52;1801049;80;21561;-68
2022/12/28 11:19:45;;;;;;;2.83;1.70;;;;;;;9.92;38.42;96574.69;1778234;80;21547;-67
2022/12/28 11:22:15;;;;;;;3.20;2.65;;;;;;;10.08;38.55;96566.77;1800766;80;21017;-68
2022/12/28 11:24:42;;;;;;;1.98;1.70;;;;;;;10.32;38.85;96565.45;1801155;80;21008;-68
2022/12/28 11:27:13;;;;;;;1.82;1.37;;;;;;;10.80;39.35;96563.55;1800740;80;21048;-68
2022/12/28 11:29:44;;;;;;;2.50;1.50;;;;;;;10.57;36.26;96565.40;1801142;80;20981;-67
2022/12/28 11:32:18;;;;;;;1.62;1.27;;;;;;;10.54;36.67;96566.73;1801067;80;21470;-68
2022/12/28 11:34:44;;;;;;;3.60;2.27;;;;;;;10.51;36.82;96566.75;1801120;80;21004;-67
2022/12/28 11:37:14;;;;;;;6.42;3.55;;;;;;;10.52;37.54;96565.41;1800831;80;21108;-67
2022/12/28 11:39:45;;;;;;;7.22;3.52;;;;;;;10.39;38.76;96563.25;1801126;80;20980;-67
2022/12/28 11:42:35;;;;;;;4.87;3.10;;;;;;;10.04;39.40;96568.99;1801001;80;21092;-68
2022/12/28 11:45:07;;;;;;;4.58;2.62;;;;;;;9.57;40.42;96570.73;1796118;80;21491;-67
2022/12/28 11:47:34;;;;;;;4.45;2.95;;;;;;;9.11;41.53;96574.60;1800326;80;21061;-67
2022/12/28 11:50:38;;;;;;;3.60;2.65;;;;;;;8.84;41.43;96574.06;1801324;80;20977;-67
2022/12/28 11:53:23;;;;;;;;;;;;;;;8.51;41.91;96569.53;1803338;80;21057;-67
2022/12/28 11:56:06;;;;;;;6.92;4.35;;;;;;;8.12;42.46;96575.86;1772109;80;20437;-68
2022/12/28 11:58:41;;;;;;;5.22;3.00;;;;;;;7.83;43.27;96576.08;1801062;80;20973;-68
2022/12/28 12:01:39;;;;;;;3.67;2.87;;;;;;;7.37;43.32;96574.80;1800987;80;21088;-68
2022/12/28 12:04:19;;;;;;;5.87;3.05;;;;;;;7.26;44.71;96570.34;1801093;80;20997;-68
2022/12/28 12:06:51;;;;;;;4.12;2.17;;;;;;;7.31;45.03;96569.95;1799652;80;21081;-68
2022/12/28 12:09:37;;;;;;;3.30;2.33;;;;;;;7.54;44.71;96566.22;1799862;80;21531;-68
2022/12/28 12:12:18;;;;;;;4.93;3.57;;;;;;;7.89;43.76;96564.31;1800693;80;21530;-68
2022/12/28 12:14:56;;;;;;;8.10;4.33;;;;;;;8.05;44.09;96555.66;1795106;80;21013;-69
2022/12/28 12:17:31;;;;;;;6.42;4.10;;;;;;;8.37;43.44;96554.98;1801276;80;21020;-69
2022/12/28 12:20:03;;;;;;;10.72;5.55;;;;;;;8.13;42.80;96555.70;1799751;80;21040;-69